Stillwater, Canada
Current Conditions -  °F | °C
As of 4:00 PM on Friday 24 Oct 2014 (Local Time) from CYPW Reporting Station
Broken Clouds Broken Clouds  
Wind Chill: 52°   Ceiling: 27000
Heat Index: 52°   Visibility: 20mi
Dew Point: 46°   Wind: 6mph
Humidity: 82%   Direction: 130°SE
Pressure: 29.99"   Gusts: NA
Location:  49.77°N, 124.3°W
Report Text: CYPW 242300Z 13005KT 20SM FEW008 FEW025 FEW045 BKN270 11/08 A2999 RMK SF1SC1SC1CI7 SF TR SC TR SC TR SLP158
Loading
Personal Weather Stations






























Interactive Weather Map
Tropical Storm Tracking
New forecast layout! Learn more

10-Day Weather Forecast

Advertisements
Track Severe Weather on mobile